Time;durP1;ratioP1;P1;durP2;ratioP2;P2;SDS_P1;SDS_P2;PMS_P1;PMS_P2;Temp;Humidity;BMP_temperature;BMP_pressure;BME280_temperature;BME280_humidity;BME280_pressure;Samples;Min_cycle;Max_cycle;Signal;HPM_P1;HPM_P2
2021/05/23 00:00:24;;;;;;;4.07;2.10;;;;;;;9.46;100.00;95567.44;1031557;28;20258;-49
2021/05/23 00:00:56;;;;;;;4.32;2.10;;;;;;;9.48;100.00;95575.16;1031363;28;20303;-50
2021/05/23 00:01:27;;;;;;;5.20;2.08;;;;;;;9.45;100.00;95572.75;1035443;28;20261;-50
2021/05/23 00:01:59;;;;;;;6.25;2.22;;;;;;;9.46;100.00;95580.50;1031484;28;20253;-49
2021/05/23 00:02:30;;;;;;;10.40;2.40;;;;;;;9.47;100.00;95574.31;1027502;28;20011;-49
2021/05/23 00:03:03;;;;;;;5.43;3.08;;;;;;;9.47;100.00;95568.25;1027504;28;20818;-48
2021/05/23 00:03:35;;;;;;;3.65;1.80;;;;;;;9.43;100.00;95579.88;1032086;28;20436;-49
2021/05/23 00:04:06;;;;;;;5.10;2.13;;;;;;;9.41;100.00;95582.59;1031472;28;20344;-48
2021/05/23 00:04:37;;;;;;;6.03;2.38;;;;;;;9.37;100.00;95590.78;1031568;28;20613;-50
2021/05/23 00:05:09;;;;;;;5.60;2.50;;;;;;;9.39;100.00;95592.34;1027455;28;20403;-48
2021/05/23 00:05:41;;;;;;;4.35;1.98;;;;;;;9.43;100.00;95591.19;1031548;28;20249;-49
2021/05/23 00:06:12;;;;;;;4.50;2.10;;;;;;;9.50;100.00;95595.03;1032092;28;20353;-49
2021/05/23 00:06:43;;;;;;;3.95;2.00;;;;;;;9.48;100.00;95590.88;1031536;28;20439;-50
2021/05/23 00:07:13;;;;;;;5.50;2.60;;;;;;;9.45;100.00;95589.28;1035601;28;20257;-48
2021/05/23 00:07:54;;;;;;;5.30;2.10;;;;;;;9.50;100.00;95596.81;1039510;28;20021;-51
2021/05/23 00:08:26;;;;;;;;;;;;;;;9.55;100.00;95592.06;1040367;28;20045;-50
2021/05/23 00:08:57;;;;;;;5.18;2.42;;;;;;;9.48;100.00;95591.69;1031537;28;19906;-49
2021/05/23 00:09:28;;;;;;;3.75;1.98;;;;;;;9.52;100.00;95595.75;1031541;28;20254;-50
2021/05/23 00:09:59;;;;;;;5.68;2.05;;;;;;;9.48;100.00;95596.91;1031418;28;20365;-52
2021/05/23 00:10:31;;;;;;;4.07;1.88;;;;;;;9.46;100.00;95596.19;1027488;28;20042;-49
2021/05/23 00:11:06;;;;;;;4.78;2.13;;;;;;;9.45;100.00;95602.34;1027551;28;20023;-49
2021/05/23 00:11:38;;;;;;;5.40;2.30;;;;;;;9.47;100.00;95605.69;1035492;28;20332;-48
2021/05/23 00:12:12;;;;;;;5.43;2.28;;;;;;;9.50;100.00;95604.66;1032483;28;20625;-50
2021/05/23 00:12:45;;;;;;;7.47;2.33;;;;;;;9.59;100.00;95598.78;1039590;28;20248;-49
2021/05/23 00:13:18;;;;;;;6.38;2.20;;;;;;;9.49;100.00;95597.75;1031383;28;20269;-47
2021/05/23 00:13:49;;;;;;;4.93;2.33;;;;;;;9.54;100.00;95604.31;1031272;28;20281;-52
2021/05/23 00:14:21;;;;;;;4.82;2.22;;;;;;;9.51;100.00;95612.38;1031446;28;20293;-48
2021/05/23 00:14:52;;;;;;;5.78;2.20;;;;;;;9.52;100.00;95603.59;1031520;28;20018;-52
2021/05/23 00:15:26;;;;;;;6.50;2.72;;;;;;;9.53;100.00;95607.03;1035568;28;20261;-49
2021/05/23 00:16:00;;;;;;;4.65;2.20;;;;;;;9.60;100.00;95599.59;1039478;28;20110;-50
2021/05/23 00:16:31;;;;;;;6.45;2.20;;;;;;;9.58;100.00;95606.72;1035549;28;20634;-50
2021/05/23 00:17:02;;;;;;;4.65;1.95;;;;;;;9.63;100.00;95615.91;1036122;28;20327;-50
2021/05/23 00:17:33;;;;;;;3.85;2.00;;;;;;;9.57;100.00;95608.47;1036308;28;20068;-49
2021/05/23 00:18:05;;;;;;;6.07;1.95;;;;;;;9.63;100.00;95615.91;1036197;28;20030;-48
2021/05/23 00:18:38;;;;;;;5.47;2.28;;;;;;;9.61;100.00;95607.34;1036218;28;20249;-49
2021/05/23 00:19:09;;;;;;;4.47;2.08;;;;;;;9.68;100.00;95615.56;1036372;28;20354;-48
2021/05/23 00:19:39;;;;;;;6.05;1.83;;;;;;;9.68;100.00;95616.38;1036288;28;20287;-50
2021/05/23 00:20:12;;;;;;;5.65;2.17;;;;;;;9.62;100.00;95613.41;1036212;28;20507;-49
2021/05/23 00:20:43;;;;;;;4.22;1.63;;;;;;;9.64;100.00;95612.34;1036304;28;20022;-52
2021/05/23 00:21:15;;;;;;;7.72;2.00;;;;;;;9.67;100.00;95619.13;1040260;28;20284;-50
2021/05/23 00:21:46;;;;;;;5.72;2.45;;;;;;;9.61;100.00;95614.31;1032270;28;20323;-50
2021/05/23 00:22:17;;;;;;;4.20;1.92;;;;;;;9.59;100.00;95611.84;1031946;28;20281;-49
2021/05/23 00:22:48;;;;;;;3.90;1.73;;;;;;;9.64;100.00;95616.72;1036292;28;20033;-50
2021/05/23 00:23:19;;;;;;;5.25;2.17;;;;;;;9.57;100.00;95615.50;1032247;28;20099;-49
2021/05/23 00:23:49;;;;;;;3.92;2.00;;;;;;;9.45;100.00;95601.53;1036058;28;20037;-50
2021/05/23 00:24:20;;;;;;;5.00;2.05;;;;;;;9.60;100.00;95620.53;1036251;28;20265;-50
2021/05/23 00:24:51;;;;;;;7.30;1.67;;;;;;;9.63;100.00;95613.28;1032284;28;20018;-49
2021/05/23 00:25:22;;;;;;;5.35;2.10;;;;;;;9.67;100.00;95613.91;1044465;28;20052;-50
2021/05/23 00:25:53;;;;;;;7.28;2.20;;;;;;;9.67;100.00;95619.13;1032224;28;20028;-49
2021/05/23 00:26:24;;;;;;;5.28;1.80;;;;;;;9.68;100.00;95608.53;1032100;28;20332;-49
2021/05/23 00:26:55;;;;;;;4.65;2.10;;;;;;;9.69;100.00;95606.78;1028329;28;20019;-48
2021/05/23 00:27:26;;;;;;;3.97;1.70;;;;;;;9.66;100.00;95614.84;1032284;28;20019;-50
2021/05/23 00:27:57;;;;;;;3.70;2.00;;;;;;;9.70;100.00;95616.28;1036377;28;20503;-51
2021/05/23 00:28:28;;;;;;;5.30;1.70;;;;;;;9.74;100.00;95602.03;1040208;28;20339;-51
2021/05/23 00:28:59;;;;;;;4.53;1.98;;;;;;;9.71;100.00;95610.94;1040316;28;20315;-49
2021/05/23 00:29:30;;;;;;;5.03;1.98;;;;;;;9.73;100.00;95611.66;1036314;28;20261;-49
2021/05/23 00:30:01;;;;;;;4.55;1.80;;;;;;;9.71;100.00;95604.88;1040351;28;20260;-49
2021/05/23 00:30:32;;;;;;;3.58;1.58;;;;;;;9.68;100.00;95608.53;1040233;28;20027;-50
2021/05/23 00:31:04;;;;;;;5.53;2.10;;;;;;;9.72;100.00;95610.00;1036253;28;20024;-49
2021/05/23 00:31:35;;;;;;;4.20;1.65;;;;;;;9.71;100.00;95615.34;1036272;28;20248;-49
2021/05/23 00:32:07;;;;;;;4.30;1.90;;;;;;;9.70;100.00;95611.06;1036133;28;20277;-49
2021/05/23 00:32:39;;;;;;;5.38;2.00;;;;;;;9.72;100.00;95617.00;1040226;28;20649;-49
2021/05/23 00:33:10;;;;;;;5.97;2.47;;;;;;;9.68;100.00;95608.53;1036294;28;20288;-49
2021/05/23 00:33:41;;;;;;;4.10;1.83;;;;;;;9.68;100.00;95620.78;1032051;28;20258;-49
2021/05/23 00:34:12;;;;;;;3.75;1.80;;;;;;;9.57;100.00;95598.03;1036262;28;20026;-49
2021/05/23 00:34:43;;;;;;;4.63;2.03;;;;;;;9.69;100.00;95618.06;1032074;28;20671;-50
2021/05/23 00:35:13;;;;;;;4.95;1.90;;;;;;;9.65;100.00;95611.41;1040301;28;20390;-48
2021/05/23 00:35:45;;;;;;;4.70;1.80;;;;;;;9.64;100.00;95616.72;1032180;28;20530;-48
2021/05/23 00:36:16;;;;;;;4.68;1.83;;;;;;;9.69;100.00;95614.63;1032180;28;20352;-49
2021/05/23 00:36:48;;;;;;;3.60;1.73;;;;;;;9.75;100.00;95616.78;1044285;28;20017;-49
2021/05/23 00:37:19;;;;;;;14.25;3.47;;;;;;;9.76;100.00;95610.63;1040402;28;20256;-49
2021/05/23 00:37:50;;;;;;;5.28;1.90;;;;;;;9.77;100.00;95608.84;1036271;28;20249;-50
2021/05/23 00:38:21;;;;;;;6.45;2.30;;;;;;;9.76;100.00;95608.00;1036177;28;20030;-48
2021/05/23 00:38:52;;;;;;;5.68;1.83;;;;;;;9.73;100.00;95608.22;1044279;28;20040;-48
2021/05/23 00:39:23;;;;;;;4.85;2.38;;;;;;;9.75;100.00;95602.88;1040298;28;20031;-49
2021/05/23 00:39:54;;;;;;;4.38;1.90;;;;;;;9.73;100.00;95601.19;1040283;28;20845;-48
2021/05/23 00:40:25;;;;;;;3.35;1.70;;;;;;;9.74;100.00;95602.03;1040329;28;20052;-49
2021/05/23 00:40:55;;;;;;;4.53;1.80;;;;;;;9.77;100.00;95601.00;1036144;28;20056;-48
2021/05/23 00:41:27;;;;;;;5.18;1.85;;;;;;;9.73;100.00;95595.16;1032165;28;20029;-51
2021/05/23 00:41:58;;;;;;;4.10;1.95;;;;;;;9.81;100.00;95595.41;1036296;28;20021;-48
2021/05/23 00:42:29;;;;;;;5.47;1.90;;;;;;;9.78;100.00;95589.56;1044202;28;20303;-50
2021/05/23 00:43:00;;;;;;;4.55;1.67;;;;;;;9.84;100.00;95589.97;1036111;28;20053;-50
2021/05/23 00:43:31;;;;;;;5.20;1.50;;;;;;;9.84;100.00;95591.75;1040115;28;20395;-51
2021/05/23 00:44:03;;;;;;;3.88;1.90;;;;;;;9.83;100.00;95596.13;1036128;28;20759;-50
2021/05/23 00:44:34;;;;;;;5.97;1.77;;;;;;;9.84;100.00;95595.19;1044388;28;20255;-49
2021/05/23 00:45:06;;;;;;;5.03;2.00;;;;;;;9.75;100.00;95595.88;1044329;28;20309;-51
2021/05/23 00:45:37;;;;;;;7.95;2.25;;;;;;;9.71;100.00;95600.47;1040315;28;20494;-50
2021/05/23 00:46:08;;;;;;;3.83;1.77;;;;;;;9.72;100.00;95594.31;1032192;28;20341;-49
2021/05/23 00:46:39;;;;;;;3.28;1.75;;;;;;;9.73;100.00;95606.44;1036154;28;20311;-50
2021/05/23 00:47:10;;;;;;;3.60;1.52;;;;;;;9.72;100.00;95599.56;1036096;28;20013;-49
2021/05/23 00:47:42;;;;;;;3.45;1.50;;;;;;;9.77;100.00;95601.81;1032295;28;20261;-49
2021/05/23 00:48:13;;;;;;;3.60;1.38;;;;;;;9.81;100.00;95608.50;1032173;28;20333;-50
2021/05/23 00:48:44;;;;;;;3.95;1.50;;;;;;;9.84;100.00;95604.84;1032097;28;20304;-50
2021/05/23 00:49:15;;;;;;;3.70;1.70;;;;;;;9.81;100.00;95608.50;1028068;28;20015;-51
2021/05/23 00:49:46;;;;;;;4.50;1.23;;;;;;;9.75;100.00;95603.72;1044378;28;20518;-49
2021/05/23 00:50:20;;;;;;;3.83;1.83;;;;;;;9.67;100.00;95600.81;1040352;28;20256;-49
2021/05/23 00:50:51;;;;;;;14.82;1.80;;;;;;;9.63;100.00;95610.69;1036162;28;20014;-51
2021/05/23 00:51:22;;;;;;;3.92;1.60;;;;;;;9.56;100.00;95606.81;1036054;28;20245;-49
2021/05/23 00:51:53;;;;;;;5.20;2.00;;;;;;;9.56;100.00;95614.69;1032090;28;20257;-50
2021/05/23 00:52:25;;;;;;;7.18;1.80;;;;;;;9.59;100.00;95605.75;1036062;28;20751;-49
2021/05/23 00:52:56;;;;;;;4.63;1.92;;;;;;;9.63;100.00;95610.69;1036104;28;20030;-49
2021/05/23 00:53:27;;;;;;;4.38;1.70;;;;;;;9.66;100.00;95610.44;1040135;28;20765;-50
2021/05/23 00:53:58;;;;;;;4.85;2.03;;;;;;;9.62;100.00;95609.00;1036085;28;20321;-49
2021/05/23 00:54:29;;;;;;;4.10;1.60;;;;;;;9.67;100.00;95606.88;1034416;28;20249;-50
2021/05/23 00:55:01;;;;;;;4.70;1.92;;;;;;;9.72;100.00;95601.31;1040190;28;20032;-49
2021/05/23 00:55:32;;;;;;;4.72;1.83;;;;;;;9.81;100.00;95603.25;1036021;28;20257;-50
2021/05/23 00:56:04;;;;;;;4.30;1.60;;;;;;;9.67;100.00;95604.28;1036166;28;20249;-50
2021/05/23 00:56:36;;;;;;;5.90;1.80;;;;;;;9.63;100.00;95604.59;1032160;28;20759;-50
2021/05/23 00:57:07;;;;;;;3.58;1.50;;;;;;;9.58;100.00;95597.09;1036032;28;20331;-49
2021/05/23 00:57:38;;;;;;;7.38;2.10;;;;;;;9.53;100.00;95600.03;1036002;28;20253;-48
2021/05/23 00:58:09;;;;;;;4.95;1.50;;;;;;;9.57;100.00;95599.81;1032116;28;20265;-48
2021/05/23 00:58:40;;;;;;;5.50;1.80;;;;;;;9.64;100.00;95601.03;1036090;28;20249;-49
2021/05/23 00:59:12;;;;;;;4.13;1.88;;;;;;;9.62;100.00;95608.16;1036197;28;20241;-50
2021/05/23 00:59:43;;;;;;;3.42;1.60;;;;;;;9.60;100.00;95607.44;1040235;28;20033;-49
2021/05/23 01:00:42;;;;;;;4.95;1.70;;;;;;;9.66;100.00;95604.38;1028082;28;20258;-49
2021/05/23 01:01:44;;;;;;;4.97;1.42;;;;;;;9.58;100.00;95598.88;1032212;28;20033;-50
2021/05/23 01:02:35;;;;;;;5.55;1.65;;;;;;;9.59;100.00;95603.16;1040428;28;20025;-49
2021/05/23 01:03:27;;;;;;;3.22;1.42;;;;;;;9.56;100.00;95603.38;1036127;28;20260;-49
2021/05/23 01:03:59;;;;;;;4.32;1.83;;;;;;;9.60;100.00;95610.88;1037530;28;20370;-50
2021/05/23 01:04:30;;;;;;;5.05;1.85;;;;;;;9.59;100.00;95605.75;1032081;28;20269;-51
2021/05/23 01:05:01;;;;;;;5.82;2.28;;;;;;;9.49;100.00;95588.13;1036044;28;20332;-50
2021/05/23 01:05:32;;;;;;;4.93;2.22;;;;;;;9.56;100.00;95608.63;1036160;28;20297;-50
2021/05/23 01:06:05;;;;;;;4.25;1.88;;;;;;;9.59;100.00;95597.91;1035977;28;20269;-50
2021/05/23 01:06:36;;;;;;;4.40;2.10;;;;;;;9.55;100.00;95599.91;1032015;28;20033;-50
2021/05/23 01:07:07;;;;;;;5.82;2.05;;;;;;;9.57;100.00;95591.97;1032110;28;20281;-48
2021/05/23 01:07:41;;;;;;;5.80;1.70;;;;;;;9.63;100.00;95596.75;1040294;28;20096;-51
2021/05/23 01:08:12;;;;;;;4.40;1.90;;;;;;;9.68;100.00;95597.25;1040032;28;20276;-51
2021/05/23 01:08:43;;;;;;;4.60;2.00;;;;;;;9.70;100.00;95590.97;1028206;28;20692;-49
2021/05/23 01:09:14;;;;;;;6.03;1.90;;;;;;;9.65;100.00;95595.69;1040201;28;20578;-51
2021/05/23 01:09:46;;;;;;;6.45;1.98;;;;;;;9.69;100.00;95598.94;1036166;28;20523;-50
2021/05/23 01:10:18;;;;;;;4.63;1.83;;;;;;;9.71;100.00;95595.25;1031896;28;20264;-50
2021/05/23 01:11:07;;;;;;;6.10;1.80;;;;;;;9.73;100.00;95595.16;1036197;28;20260;-50
2021/05/23 01:11:40;;;;;;;3.92;1.77;;;;;;;9.77;100.00;95599.19;1032048;28;20253;-50
2021/05/23 01:12:21;;;;;;;4.93;1.90;;;;;;;9.79;100.00;95601.72;1031839;28;20627;-50
2021/05/23 01:12:53;;;;;;;3.67;1.73;;;;;;;9.81;100.00;95603.25;1032027;28;20442;-50
2021/05/23 01:13:35;;;;;;;4.03;1.92;;;;;;;9.81;100.00;95602.44;1032010;28;20258;-49
2021/05/23 01:14:27;;;;;;;4.47;1.95;;;;;;;9.77;100.00;95601.81;1031942;28;20353;-50
2021/05/23 01:14:59;;;;;;;4.15;1.80;;;;;;;9.71;100.00;95603.09;1032664;28;20755;-49
2021/05/23 01:15:31;;;;;;;4.78;1.90;;;;;;;9.75;100.00;95603.72;1032010;28;20300;-49
2021/05/23 01:16:06;;;;;;;4.82;2.00;;;;;;;9.76;100.00;95604.53;1031990;28;20272;-50
2021/05/23 01:16:54;;;;;;;5.85;1.80;;;;;;;9.70;100.00;95606.69;1035895;28;20677;-50
2021/05/23 01:17:38;;;;;;;4.10;2.08;;;;;;;9.65;100.00;95608.78;1040150;28;20253;-50
2021/05/23 01:18:14;;;;;;;4.60;1.98;;;;;;;9.66;100.00;95607.81;1040150;28;20359;-50
2021/05/23 01:18:46;;;;;;;5.72;1.98;;;;;;;9.67;100.00;95612.13;1031895;28;20254;-50
2021/05/23 01:19:29;;;;;;;5.82;1.80;;;;;;;9.60;100.00;95613.50;1027952;28;20269;-50
2021/05/23 01:20:19;;;;;;;4.07;1.88;;;;;;;9.51;100.00;95609.75;1032023;28;20274;-50
2021/05/23 01:20:53;;;;;;;;;;;;;;;9.60;100.00;95618.72;1036718;28;20265;-51
2021/05/23 01:21:26;;;;;;;4.22;1.90;;;;;;;9.59;100.00;95617.09;1036068;28;19909;-50
2021/05/23 01:22:06;;;;;;;4.22;1.75;;;;;;;9.54;100.00;95627.03;1039067;28;20256;-50
2021/05/23 01:22:41;;;;;;;4.57;1.80;;;;;;;9.53;100.00;95614.88;1034054;28;20375;-50
2021/05/23 01:23:23;;;;;;;4.75;1.58;;;;;;;9.56;100.00;95619.06;1034316;28;20269;-52
2021/05/23 01:23:55;;;;;;;6.15;1.70;;;;;;;9.55;100.00;95623.44;1035828;28;20288;-50
2021/05/23 01:24:29;;;;;;;5.82;1.80;;;;;;;9.56;100.00;95632.16;1036018;28;20265;-51
2021/05/23 01:25:11;;;;;;;4.90;2.00;;;;;;;9.51;100.00;95625.44;1035833;28;20850;-49
2021/05/23 01:25:43;;;;;;;4.25;1.80;;;;;;;9.50;100.00;95629.03;1036070;28;20264;-49
2021/05/23 01:26:14;;;;;;;3.45;1.60;;;;;;;9.47;100.00;95625.78;1031966;28;20773;-50
2021/05/23 01:26:52;;;;;;;3.67;1.40;;;;;;;9.52;100.00;95634.97;1031831;28;20298;-49
2021/05/23 01:27:26;;;;;;;3.38;1.45;;;;;;;9.56;100.00;95629.53;1028138;28;20586;-50
2021/05/23 01:27:57;;;;;;;3.15;1.48;;;;;;;9.52;100.00;95616.66;1031986;28;20655;-50
2021/05/23 01:28:28;;;;;;;3.53;1.65;;;;;;;9.57;100.00;95632.03;1031686;28;20254;-49
2021/05/23 01:29:03;;;;;;;4.65;1.40;;;;;;;9.63;100.00;95630.75;1031680;28;20336;-48
2021/05/23 01:29:34;;;;;;;4.80;1.52;;;;;;;9.67;100.00;95627.00;1027963;28;20632;-49
2021/05/23 01:30:08;;;;;;;3.83;1.70;;;;;;;9.65;100.00;95634.13;1027966;28;20270;-51
2021/05/23 01:30:42;;;;;;;4.00;1.35;;;;;;;9.64;100.00;95635.03;1031945;28;20061;-51
2021/05/23 01:32:07;;;;;;;3.97;1.83;;;;;;;9.59;100.00;95629.31;1031803;28;20280;-49
2021/05/23 01:32:40;;;;;;;6.38;1.60;;;;;;;9.63;100.00;95636.84;1043821;28;20260;-50
2021/05/23 01:33:13;;;;;;;9.02;1.95;;;;;;;9.66;100.00;95627.91;1043544;28;20314;-50
2021/05/23 01:33:52;;;;;;;3.58;1.42;;;;;;;9.69;100.00;95630.31;1039874;28;20263;-50
2021/05/23 01:34:23;;;;;;;2.95;1.45;;;;;;;9.68;100.00;95631.25;1035938;28;20754;-50
2021/05/23 01:34:54;;;;;;;4.45;1.38;;;;;;;9.68;100.00;95628.66;1035980;28;20261;-49
2021/05/23 01:35:31;;;;;;;3.58;1.42;;;;;;;9.65;100.00;95641.97;1035912;28;20272;-50
2021/05/23 01:36:02;;;;;;;4.60;1.55;;;;;;;9.63;100.00;95638.59;1032034;28;20408;-49
2021/05/23 01:36:39;;;;;;;5.90;1.30;;;;;;;9.63;100.00;95641.22;1031970;28;20616;-51
2021/05/23 01:37:13;;;;;;;4.00;1.45;;;;;;;9.66;100.00;95643.63;1040043;28;20283;-50
2021/05/23 01:37:46;;;;;;;3.13;1.60;;;;;;;9.68;100.00;95649.56;1031948;28;20328;-50
2021/05/23 01:38:18;;;;;;;2.75;1.27;;;;;;;9.67;100.00;95648.75;1031917;28;20345;-51
2021/05/23 01:38:50;;;;;;;3.92;1.35;;;;;;;9.65;100.00;95649.81;1036031;28;20264;-50
2021/05/23 01:39:21;;;;;;;6.93;1.67;;;;;;;9.68;100.00;95655.63;1035918;28;20264;-50
2021/05/23 01:39:52;;;;;;;3.70;1.48;;;;;;;9.67;100.00;95653.97;1036025;28;20719;-50
2021/05/23 01:40:23;;;;;;;3.92;1.30;;;;;;;9.66;100.00;95661.94;1031883;28;20018;-49
2021/05/23 01:40:58;;;;;;;3.95;1.48;;;;;;;9.64;100.00;95664.66;1040030;28;20025;-50
2021/05/23 01:41:29;;;;;;;4.40;1.35;;;;;;;9.67;100.00;95666.22;1039929;28;20013;-49
2021/05/23 01:42:00;;;;;;;3.60;1.25;;;;;;;9.67;100.00;95672.28;1044207;28;20668;-51
2021/05/23 01:42:31;;;;;;;3.33;1.30;;;;;;;9.60;100.00;95667.59;1035917;28;20303;-51
2021/05/23 01:43:02;;;;;;;4.88;1.40;;;;;;;9.63;100.00;95672.59;1027899;28;20281;-50
2021/05/23 01:43:34;;;;;;;3.30;1.30;;;;;;;9.63;100.00;95676.06;1031567;28;20258;-51
2021/05/23 01:44:06;;;;;;;3.45;1.38;;;;;;;9.64;100.00;95676.91;1035871;28;20264;-50
2021/05/23 01:44:37;;;;;;;4.88;1.20;;;;;;;9.63;100.00;95678.69;1031907;28;20256;-50
2021/05/23 01:45:09;;;;;;;6.55;1.50;;;;;;;9.62;100.00;95681.41;1035994;28;20633;-50
2021/05/23 01:45:40;;;;;;;3.88;1.38;;;;;;;9.58;100.00;95675.56;1035826;28;20033;-50
2021/05/23 01:46:11;;;;;;;3.38;1.40;;;;;;;9.54;100.00;95676.72;1032010;28;20253;-50
2021/05/23 01:46:42;;;;;;;3.70;1.60;;;;;;;9.58;100.00;95679.97;1035817;28;20366;-50
2021/05/23 01:47:13;;;;;;;5.28;1.30;;;;;;;9.56;100.00;95676.63;1036005;28;20018;-48
2021/05/23 01:47:45;;;;;;;5.28;1.33;;;;;;;9.52;100.00;95679.44;1039917;28;20244;-49
2021/05/23 01:48:16;;;;;;;2.70;1.30;;;;;;;9.47;100.00;95686.75;1044200;28;20019;-50
2021/05/23 01:48:47;;;;;;;4.47;1.73;;;;;;;9.46;100.00;95682.50;1035947;28;20857;-49
2021/05/23 01:49:18;;;;;;;6.45;1.40;;;;;;;9.46;100.00;95681.63;1035941;28;20284;-51
2021/05/23 01:49:49;;;;;;;4.65;1.70;;;;;;;9.44;100.00;95680.91;1035801;28;20304;-49
2021/05/23 01:50:19;;;;;;;5.45;2.00;;;;;;;9.39;100.00;95680.41;1035907;28;20441;-50
2021/05/23 01:50:51;;;;;;;3.85;1.30;;;;;;;9.36;100.00;95685.84;1031984;28;20014;-50
2021/05/23 01:51:22;;;;;;;5.13;1.45;;;;;;;9.31;100.00;95683.56;1031919;28;20098;-50
2021/05/23 01:51:53;;;;;;;3.88;1.50;;;;;;;9.25;100.00;95683.97;1031848;28;20713;-48
2021/05/23 01:52:24;;;;;;;3.85;1.35;;;;;;;9.24;100.00;95685.75;1031845;28;20382;-49
2021/05/23 01:52:59;;;;;;;5.40;1.40;;;;;;;9.13;100.00;95689.09;1031932;28;20539;-49
2021/05/23 01:53:30;;;;;;;6.32;1.73;;;;;;;9.03;100.00;95690.69;1031790;28;20027;-49
2021/05/23 01:54:01;;;;;;;6.63;1.70;;;;;;;8.94;100.00;95697.38;1031699;28;20738;-49
2021/05/23 01:54:32;;;;;;;3.90;1.40;;;;;;;8.89;100.00;95699.44;1034820;28;20010;-50
2021/05/23 01:55:05;;;;;;;4.22;1.92;;;;;;;8.85;100.00;95702.38;1040010;28;20260;-50
2021/05/23 01:55:36;;;;;;;3.60;1.60;;;;;;;8.79;100.00;95701.03;1040046;28;20263;-48
2021/05/23 01:56:09;;;;;;;3.42;1.60;;;;;;;8.75;100.00;95691.72;1039978;28;20248;-50
2021/05/23 01:56:40;;;;;;;3.80;1.50;;;;;;;8.76;100.00;95696.00;1035902;28;20265;-49
2021/05/23 01:57:12;;;;;;;4.65;1.58;;;;;;;8.78;100.00;95698.50;1035918;28;20257;-48
2021/05/23 01:57:43;;;;;;;3.75;1.88;;;;;;;8.72;100.00;95702.38;1035915;28;20022;-48
2021/05/23 01:58:14;;;;;;;4.35;1.48;;;;;;;8.63;100.00;95708.22;1035836;28;20281;-50
2021/05/23 01:58:45;;;;;;;5.10;1.70;;;;;;;8.57;100.00;95707.66;1035837;28;20265;-50
2021/05/23 01:59:16;;;;;;;3.80;1.75;;;;;;;8.56;100.00;95705.19;1031868;28;20787;-50
2021/05/23 01:59:47;;;;;;;5.22;1.70;;;;;;;8.55;100.00;95712.16;1039950;28;20112;-48
2021/05/23 02:00:21;;;;;;;4.70;1.52;;;;;;;8.56;100.00;95706.00;1035809;28;20014;-49
2021/05/23 02:00:53;;;;;;;7.78;1.65;;;;;;;8.50;100.00;95705.56;1035808;28;20257;-50
2021/05/23 02:01:25;;;;;;;3.15;1.35;;;;;;;8.48;100.00;95712.66;1039953;28;20259;-47
2021/05/23 02:01:57;;;;;;;2.80;1.17;;;;;;;8.44;100.00;95704.19;1040029;28;20764;-51
2021/05/23 02:02:28;;;;;;;4.13;1.20;;;;;;;8.44;100.00;95717.25;1039704;28;20761;-49
2021/05/23 02:02:59;;;;;;;5.68;1.40;;;;;;;8.36;100.00;95706.44;1044142;28;20346;-48
2021/05/23 02:03:31;;;;;;;5.03;1.55;;;;;;;8.31;100.00;95718.97;1035712;28;20074;-48
2021/05/23 02:04:03;;;;;;;3.80;1.50;;;;;;;8.32;100.00;95712.81;1035811;28;20859;-49
2021/05/23 02:04:33;;;;;;;2.63;1.23;;;;;;;8.29;100.00;95715.63;1035786;28;20654;-50
2021/05/23 02:05:05;;;;;;;4.18;1.65;;;;;;;8.28;100.00;95716.56;1035891;28;20265;-50
2021/05/23 02:05:39;;;;;;;3.70;1.48;;;;;;;8.25;100.00;95714.97;1035862;28;20018;-52
2021/05/23 02:06:10;;;;;;;4.50;1.45;;;;;;;8.18;100.00;95711.94;1031911;28;20325;-49
2021/05/23 02:06:41;;;;;;;3.40;1.60;;;;;;;8.16;100.00;95712.97;1044028;28;20263;-49
2021/05/23 02:07:12;;;;;;;3.58;1.55;;;;;;;8.16;100.00;95712.97;1040018;28;20283;-50
2021/05/23 02:07:43;;;;;;;3.40;1.70;;;;;;;8.12;100.00;95719.31;1031830;28;20352;-49
2021/05/23 02:08:17;;;;;;;3.35;1.50;;;;;;;8.09;100.00;95714.28;1039907;28;20025;-49
2021/05/23 02:08:48;;;;;;;4.97;1.80;;;;;;;8.08;100.00;95718.66;1035773;28;20103;-49
2021/05/23 02:09:20;;;;;;;5.85;1.88;;;;;;;8.05;100.00;95718.03;1035881;28;20315;-49
2021/05/23 02:09:51;;;;;;;4.95;1.55;;;;;;;8.00;100.00;95720.94;1035873;28;20022;-48
2021/05/23 02:10:22;;;;;;;6.60;2.13;;;;;;;7.93;100.00;95719.66;1031713;28;20272;-48
2021/05/23 02:10:55;;;;;;;3.65;1.75;;;;;;;7.93;100.00;95723.09;1035694;28;20096;-49
2021/05/23 02:11:26;;;;;;;5.18;1.70;;;;;;;7.92;100.00;95718.81;1039888;28;20260;-50
2021/05/23 02:11:57;;;;;;;2.80;1.40;;;;;;;7.92;100.00;95716.22;1039974;28;20679;-50
2021/05/23 02:12:28;;;;;;;4.80;1.77;;;;;;;7.91;100.00;95724.13;1035677;28;20273;-49
2021/05/23 02:13:01;;;;;;;3.90;1.73;;;;;;;7.88;100.00;95717.34;1035836;28;20029;-49
2021/05/23 02:13:32;;;;;;;3.75;1.40;;;;;;;7.89;100.00;95718.19;1031619;28;20026;-51
2021/05/23 02:14:03;;;;;;;5.35;2.00;;;;;;;7.87;100.00;95715.66;1039809;28;20291;-48
2021/05/23 02:14:35;;;;;;;3.78;1.60;;;;;;;7.86;100.00;95719.19;1048065;28;20275;-50
2021/05/23 02:15:07;;;;;;;3.72;1.60;;;;;;;7.83;100.00;95722.03;1040014;28;20759;-48
2021/05/23 02:15:38;;;;;;;4.45;1.90;;;;;;;7.81;100.00;95720.41;1035869;28;20296;-49
2021/05/23 02:16:09;;;;;;;4.32;1.88;;;;;;;7.78;100.00;95726.69;1035807;28;20778;-50
2021/05/23 02:16:40;;;;;;;5.25;2.08;;;;;;;7.76;100.00;95716.34;1031773;28;20026;-51
2021/05/23 02:17:11;;;;;;;7.35;2.05;;;;;;;7.76;100.00;95723.34;1035704;28;20031;-48
2021/05/23 02:17:42;;;;;;;4.30;1.98;;;;;;;7.79;100.00;95720.53;1031756;28;20022;-49
2021/05/23 02:18:13;;;;;;;3.63;2.03;;;;;;;7.79;100.00;95730.97;1039878;28;20025;-50
2021/05/23 02:18:45;;;;;;;3.17;1.75;;;;;;;7.73;100.00;95726.97;1043975;28;20248;-48
2021/05/23 02:19:17;;;;;;;7.03;2.00;;;;;;;7.73;100.00;95720.91;1031742;28;20465;-49
2021/05/23 02:19:50;;;;;;;4.35;1.90;;;;;;;7.73;100.00;95718.28;1031812;28;20265;-48
2021/05/23 02:20:23;;;;;;;5.20;1.90;;;;;;;7.72;100.00;95721.84;1035809;28;20299;-50
2021/05/23 02:20:54;;;;;;;6.07;1.80;;;;;;;7.73;100.00;95724.38;1035753;28;20412;-48
2021/05/23 02:21:25;;;;;;;3.88;2.20;;;;;;;7.67;100.00;95734.34;1039880;28;20256;-49
2021/05/23 02:21:57;;;;;;;4.00;1.80;;;;;;;7.67;100.00;95718.69;1039944;28;20343;-49
2021/05/23 02:22:28;;;;;;;6.50;1.90;;;;;;;7.68;100.00;95730.81;1039762;28;20260;-48
2021/05/23 02:23:02;;;;;;;4.95;2.20;;;;;;;7.68;100.00;95726.41;1035757;28;20269;-49
2021/05/23 02:23:33;;;;;;;3.17;1.77;;;;;;;7.66;100.00;95733.50;1039655;28;20260;-51
2021/05/23 02:24:05;;;;;;;5.00;1.85;;;;;;;7.65;100.00;95728.38;1031672;28;20281;-49
2021/05/23 02:24:36;;;;;;;2.60;1.33;;;;;;;7.65;100.00;95736.22;1035839;28;20024;-50
2021/05/23 02:25:08;;;;;;;3.15;1.58;;;;;;;7.61;100.00;95727.72;1039750;28;20299;-50
2021/05/23 02:25:39;;;;;;;3.58;1.58;;;;;;;7.62;100.00;95729.41;1031765;28;20783;-50
2021/05/23 02:26:10;;;;;;;4.63;1.42;;;;;;;7.63;100.00;95732.84;1035821;28;20267;-49
2021/05/23 02:26:42;;;;;;;3.33;1.45;;;;;;;7.59;100.00;95729.59;1035787;28;20018;-49
2021/05/23 02:27:14;;;;;;;6.15;1.65;;;;;;;7.56;100.00;95722.81;1039764;28;20116;-49
2021/05/23 02:27:49;;;;;;;4.15;1.70;;;;;;;7.62;100.00;95734.63;1039876;28;20263;-51
2021/05/23 02:28:20;;;;;;;2.80;1.42;;;;;;;7.63;100.00;95733.69;1039910;28;20263;-50
2021/05/23 02:28:52;;;;;;;4.25;1.45;;;;;;;7.61;100.00;95735.56;1035983;28;20256;-48
2021/05/23 02:29:23;;;;;;;3.53;1.40;;;;;;;7.59;100.00;95727.81;1043987;28;20343;-48
2021/05/23 02:29:54;;;;;;;4.53;1.63;;;;;;;7.57;100.00;95723.66;1035909;28;20244;-48
2021/05/23 02:30:27;;;;;;;3.63;1.63;;;;;;;7.62;100.00;95733.78;1035758;28;20021;-49
2021/05/23 02:30:58;;;;;;;4.78;1.25;;;;;;;7.59;100.00;95729.59;1039862;28;20268;-49
2021/05/23 02:31:29;;;;;;;3.83;1.50;;;;;;;7.61;100.00;95729.50;1035684;28;20269;-50
2021/05/23 02:32:03;;;;;;;3.97;1.40;;;;;;;7.61;100.00;95735.56;1035760;28;20025;-50
2021/05/23 02:32:35;;;;;;;2.85;1.30;;;;;;;7.60;100.00;95736.47;1035782;28;20411;-50
2021/05/23 02:33:07;;;;;;;3.90;1.38;;;;;;;7.62;100.00;95733.78;1035970;28;20731;-49
2021/05/23 02:33:38;;;;;;;3.05;1.13;;;;;;;7.58;100.00;95733.97;1047719;28;20251;-48
2021/05/23 02:34:09;;;;;;;3.65;1.33;;;;;;;7.57;100.00;95729.69;1035807;28;20261;-49
2021/05/23 02:34:49;;;;;;;3.03;1.40;;;;;;;7.56;100.00;95727.16;1035767;28;20268;-50